Terminal Aerodrome Forecast
Issued by NWS

Home | Current Version | Previous Version | Graphics & Text | Print | Product List | Glossary On
Versions: 1 2 3 4 5 6 7 8 9 10 11 12 13
601
FTUS43 KIWX 271720
TAFSBN
TAF
KSBN 271720Z 2718/2818 20012KT P6SM BKN200
     FM272000 19010KT P6SM VCSH SCT050 BKN150
     FM272300 18007KT P6SM BKN100=

USA.gov is the U.S. government's official web portal to all federal, state and local government web resources and services.